sensor_id;sensor_type;location;lat;lon;timestamp;P1;durP1;ratioP1;P2;durP2;ratioP2
12846;SDS011;6492;48.128;8.320;2023-06-14T00:01:08;4.23;;;3.30;;
12846;SDS011;6492;48.128;8.320;2023-06-14T00:05:13;4.30;;;3.80;;
12846;SDS011;6492;48.128;8.320;2023-06-14T00:09:15;4.30;;;3.40;;
12846;SDS011;6492;48.128;8.320;2023-06-14T00:13:17;5.23;;;3.43;;
12846;SDS011;6492;48.128;8.320;2023-06-14T00:17:20;5.70;;;3.67;;
12846;SDS011;6492;48.128;8.320;2023-06-14T00:21:22;3.77;;;3.37;;
12846;SDS011;6492;48.128;8.320;2023-06-14T00:25:24;4.57;;;3.90;;
12846;SDS011;6492;48.128;8.320;2023-06-14T00:29:26;3.53;;;3.23;;
12846;SDS011;6492;48.128;8.320;2023-06-14T00:33:29;3.90;;;3.50;;
12846;SDS011;6492;48.128;8.320;2023-06-14T00:37:31;5.53;;;3.73;;
12846;SDS011;6492;48.128;8.320;2023-06-14T00:41:33;5.03;;;3.80;;
12846;SDS011;6492;48.128;8.320;2023-06-14T00:45:36;5.67;;;3.73;;
12846;SDS011;6492;48.128;8.320;2023-06-14T00:49:39;4.40;;;3.57;;
12846;SDS011;6492;48.128;8.320;2023-06-14T00:53:42;3.90;;;3.27;;
12846;SDS011;6492;48.128;8.320;2023-06-14T00:57:46;3.97;;;3.57;;
12846;SDS011;6492;48.128;8.320;2023-06-14T01:01:49;4.10;;;3.50;;
12846;SDS011;6492;48.128;8.320;2023-06-14T01:05:53;4.20;;;3.73;;
12846;SDS011;6492;48.128;8.320;2023-06-14T01:10:08;4.67;;;3.40;;
12846;SDS011;6492;48.128;8.320;2023-06-14T01:14:21;4.90;;;3.43;;
12846;SDS011;6492;48.128;8.320;2023-06-14T01:18:24;4.33;;;3.40;;
12846;SDS011;6492;48.128;8.320;2023-06-14T01:22:28;4.20;;;3.70;;
12846;SDS011;6492;48.128;8.320;2023-06-14T01:26:32;5.73;;;3.80;;
12846;SDS011;6492;48.128;8.320;2023-06-14T01:30:34;4.40;;;3.43;;
12846;SDS011;6492;48.128;8.320;2023-06-14T01:34:37;5.27;;;3.83;;
12846;SDS011;6492;48.128;8.320;2023-06-14T01:38:39;5.10;;;3.60;;
12846;SDS011;6492;48.128;8.320;2023-06-14T01:42:44;4.20;;;3.00;;
12846;SDS011;6492;48.128;8.320;2023-06-14T01:46:47;5.50;;;3.27;;
12846;SDS011;6492;48.128;8.320;2023-06-14T01:50:50;3.73;;;3.33;;
12846;SDS011;6492;48.128;8.320;2023-06-14T01:54:52;3.70;;;3.30;;
12846;SDS011;6492;48.128;8.320;2023-06-14T01:59:00;3.53;;;3.23;;
12846;SDS011;6492;48.128;8.320;2023-06-14T02:03:02;5.53;;;3.50;;
12846;SDS011;6492;48.128;8.320;2023-06-14T02:07:04;4.70;;;3.90;;
12846;SDS011;6492;48.128;8.320;2023-06-14T02:11:06;4.10;;;3.50;;
12846;SDS011;6492;48.128;8.320;2023-06-14T02:15:10;5.17;;;3.67;;
12846;SDS011;6492;48.128;8.320;2023-06-14T02:19:16;5.10;;;3.77;;
12846;SDS011;6492;48.128;8.320;2023-06-14T02:23:19;5.57;;;3.33;;
12846;SDS011;6492;48.128;8.320;2023-06-14T02:27:20;3.90;;;3.50;;
12846;SDS011;6492;48.128;8.320;2023-06-14T02:31:24;3.80;;;3.20;;
12846;SDS011;6492;48.128;8.320;2023-06-14T02:35:27;3.30;;;2.90;;
12846;SDS011;6492;48.128;8.320;2023-06-14T02:39:28;3.60;;;3.20;;
12846;SDS011;6492;48.128;8.320;2023-06-14T02:43:30;4.43;;;3.57;;
12846;SDS011;6492;48.128;8.320;2023-06-14T02:47:34;4.10;;;3.27;;
12846;SDS011;6492;48.128;8.320;2023-06-14T02:51:36;4.97;;;3.60;;
12846;SDS011;6492;48.128;8.320;2023-06-14T02:55:38;5.93;;;4.00;;
12846;SDS011;6492;48.128;8.320;2023-06-14T02:59:40;4.90;;;3.77;;
12846;SDS011;6492;48.128;8.320;2023-06-14T03:03:43;3.63;;;3.30;;
12846;SDS011;6492;48.128;8.320;2023-06-14T03:07:45;3.77;;;3.37;;
12846;SDS011;6492;48.128;8.320;2023-06-14T03:11:47;4.43;;;3.57;;
12846;SDS011;6492;48.128;8.320;2023-06-14T03:15:49;3.93;;;3.20;;
12846;SDS011;6492;48.128;8.320;2023-06-14T03:19:53;3.27;;;2.97;;
12846;SDS011;6492;48.128;8.320;2023-06-14T03:23:54;4.37;;;3.30;;
12846;SDS011;6492;48.128;8.320;2023-06-14T03:27:57;4.20;;;3.40;;
12846;SDS011;6492;48.128;8.320;2023-06-14T03:31:59;4.20;;;3.30;;
12846;SDS011;6492;48.128;8.320;2023-06-14T03:36:03;5.33;;;3.90;;
12846;SDS011;6492;48.128;8.320;2023-06-14T03:40:06;4.40;;;3.77;;
12846;SDS011;6492;48.128;8.320;2023-06-14T03:44:08;5.77;;;3.80;;
12846;SDS011;6492;48.128;8.320;2023-06-14T03:48:11;5.10;;;4.07;;
12846;SDS011;6492;48.128;8.320;2023-06-14T03:52:14;4.97;;;4.10;;
12846;SDS011;6492;48.128;8.320;2023-06-14T03:56:17;5.20;;;3.63;;
12846;SDS011;6492;48.128;8.320;2023-06-14T04:00:19;4.90;;;3.83;;
12846;SDS011;6492;48.128;8.320;2023-06-14T04:04:21;6.50;;;3.30;;
12846;SDS011;6492;48.128;8.320;2023-06-14T04:08:30;4.13;;;3.30;;
12846;SDS011;6492;48.128;8.320;2023-06-14T04:12:32;4.40;;;4.00;;
12846;SDS011;6492;48.128;8.320;2023-06-14T04:16:34;8.50;;;3.80;;
12846;SDS011;6492;48.128;8.320;2023-06-14T04:20:36;4.90;;;3.53;;
12846;SDS011;6492;48.128;8.320;2023-06-14T04:24:56;6.07;;;3.50;;
12846;SDS011;6492;48.128;8.320;2023-06-14T04:28:59;3.53;;;3.13;;
12846;SDS011;6492;48.128;8.320;2023-06-14T04:33:01;4.27;;;3.50;;
12846;SDS011;6492;48.128;8.320;2023-06-14T04:37:05;3.90;;;3.50;;
12846;SDS011;6492;48.128;8.320;2023-06-14T04:41:17;4.17;;;3.70;;
12846;SDS011;6492;48.128;8.320;2023-06-14T04:45:19;5.73;;;4.00;;
12846;SDS011;6492;48.128;8.320;2023-06-14T04:49:22;4.47;;;3.40;;
12846;SDS011;6492;48.128;8.320;2023-06-14T04:53:30;4.33;;;3.90;;
12846;SDS011;6492;48.128;8.320;2023-06-14T04:57:34;3.80;;;3.40;;
12846;SDS011;6492;48.128;8.320;2023-06-14T05:01:35;5.60;;;4.07;;
12846;SDS011;6492;48.128;8.320;2023-06-14T05:05:37;4.20;;;3.80;;
12846;SDS011;6492;48.128;8.320;2023-06-14T05:09:40;4.83;;;3.30;;
12846;SDS011;6492;48.128;8.320;2023-06-14T05:13:43;5.30;;;3.90;;
12846;SDS011;6492;48.128;8.320;2023-06-14T05:17:45;4.20;;;3.80;;
12846;SDS011;6492;48.128;8.320;2023-06-14T05:21:53;4.40;;;4.00;;
12846;SDS011;6492;48.128;8.320;2023-06-14T05:25:55;4.43;;;3.70;;
12846;SDS011;6492;48.128;8.320;2023-06-14T05:29:59;5.00;;;4.10;;
12846;SDS011;6492;48.128;8.320;2023-06-14T05:34:00;4.53;;;4.07;;
12846;SDS011;6492;48.128;8.320;2023-06-14T05:38:02;5.10;;;3.80;;
12846;SDS011;6492;48.128;8.320;2023-06-14T05:42:04;4.10;;;3.70;;
12846;SDS011;6492;48.128;8.320;2023-06-14T05:46:08;4.57;;;3.93;;
12846;SDS011;6492;48.128;8.320;2023-06-14T05:50:10;5.80;;;4.33;;
12846;SDS011;6492;48.128;8.320;2023-06-14T05:54:12;6.20;;;4.30;;
12846;SDS011;6492;48.128;8.320;2023-06-14T05:58:13;4.80;;;4.17;;
12846;SDS011;6492;48.128;8.320;2023-06-14T06:02:17;7.87;;;4.10;;
12846;SDS011;6492;48.128;8.320;2023-06-14T06:06:18;4.83;;;4.10;;
12846;SDS011;6492;48.128;8.320;2023-06-14T06:10:20;4.90;;;3.93;;
12846;SDS011;6492;48.128;8.320;2023-06-14T06:14:22;4.03;;;3.40;;
12846;SDS011;6492;48.128;8.320;2023-06-14T06:18:25;6.05;;;3.63;;
12846;SDS011;6492;48.128;8.320;2023-06-14T06:22:27;6.82;;;3.97;;
12846;SDS011;6492;48.128;8.320;2023-06-14T06:26:29;4.60;;;3.72;;
12846;SDS011;6492;48.128;8.320;2023-06-14T06:30:31;4.97;;;3.83;;
12846;SDS011;6492;48.128;8.320;2023-06-14T06:34:34;4.28;;;3.60;;
12846;SDS011;6492;48.128;8.320;2023-06-14T06:38:36;3.75;;;3.40;;
12846;SDS011;6492;48.128;8.320;2023-06-14T06:42:37;4.10;;;3.72;;
12846;SDS011;6492;48.128;8.320;2023-06-14T06:46:39;4.70;;;4.30;;
12846;SDS011;6492;48.128;8.320;2023-06-14T06:50:44;4.60;;;3.60;;
12846;SDS011;6492;48.128;8.320;2023-06-14T06:54:46;3.63;;;3.33;;
12846;SDS011;6492;48.128;8.320;2023-06-14T06:58:49;4.78;;;3.50;;
12846;SDS011;6492;48.128;8.320;2023-06-14T07:02:51;4.35;;;3.53;;
12846;SDS011;6492;48.128;8.320;2023-06-14T07:06:56;5.00;;;3.88;;
12846;SDS011;6492;48.128;8.320;2023-06-14T07:10:58;4.03;;;3.65;;
12846;SDS011;6492;48.128;8.320;2023-06-14T07:15:00;3.92;;;3.63;;
12846;SDS011;6492;48.128;8.320;2023-06-14T07:19:01;5.05;;;3.33;;
12846;SDS011;6492;48.128;8.320;2023-06-14T07:23:05;5.72;;;4.03;;
12846;SDS011;6492;48.128;8.320;2023-06-14T07:27:07;3.60;;;3.30;;
12846;SDS011;6492;48.128;8.320;2023-06-14T07:31:08;3.88;;;3.58;;
12846;SDS011;6492;48.128;8.320;2023-06-14T07:35:11;4.10;;;3.80;;
12846;SDS011;6492;48.128;8.320;2023-06-14T07:39:14;4.20;;;3.63;;
12846;SDS011;6492;48.128;8.320;2023-06-14T07:43:16;3.80;;;3.50;;
12846;SDS011;6492;48.128;8.320;2023-06-14T07:47:17;3.90;;;3.50;;
12846;SDS011;6492;48.128;8.320;2023-06-14T07:51:19;3.75;;;3.42;;
12846;SDS011;6492;48.128;8.320;2023-06-14T07:55:23;5.40;;;4.40;;
12846;SDS011;6492;48.128;8.320;2023-06-14T07:59:25;4.50;;;3.50;;
12846;SDS011;6492;48.128;8.320;2023-06-14T08:03:27;5.85;;;3.50;;
12846;SDS011;6492;48.128;8.320;2023-06-14T08:07:30;5.30;;;3.58;;
12846;SDS011;6492;48.128;8.320;2023-06-14T08:11:33;4.63;;;3.75;;
12846;SDS011;6492;48.128;8.320;2023-06-14T08:15:35;4.10;;;3.70;;
12846;SDS011;6492;48.128;8.320;2023-06-14T08:19:37;5.10;;;3.88;;
12846;SDS011;6492;48.128;8.320;2023-06-14T08:23:39;3.92;;;3.63;;
12846;SDS011;6492;48.128;8.320;2023-06-14T08:27:42;5.15;;;4.28;;
12846;SDS011;6492;48.128;8.320;2023-06-14T08:31:44;4.25;;;3.70;;
12846;SDS011;6492;48.128;8.320;2023-06-14T08:35:46;4.97;;;4.47;;
12846;SDS011;6492;48.128;8.320;2023-06-14T08:39:48;5.00;;;3.88;;
12846;SDS011;6492;48.128;8.320;2023-06-14T08:43:52;4.07;;;3.67;;
12846;SDS011;6492;48.128;8.320;2023-06-14T08:47:53;4.25;;;3.75;;
12846;SDS011;6492;48.128;8.320;2023-06-14T08:52:00;3.60;;;3.30;;
12846;SDS011;6492;48.128;8.320;2023-06-14T08:56:04;4.60;;;4.20;;
12846;SDS011;6492;48.128;8.320;2023-06-14T09:00:10;4.65;;;4.25;;
12846;SDS011;6492;48.128;8.320;2023-06-14T09:04:13;4.55;;;4.05;;
12846;SDS011;6492;48.128;8.320;2023-06-14T09:08:15;4.53;;;4.10;;
12846;SDS011;6492;48.128;8.320;2023-06-14T09:12:19;3.72;;;3.42;;
12846;SDS011;6492;48.128;8.320;2023-06-14T09:16:22;5.10;;;3.83;;
12846;SDS011;6492;48.128;8.320;2023-06-14T09:20:24;4.82;;;4.05;;
12846;SDS011;6492;48.128;8.320;2023-06-14T09:24:26;4.28;;;3.92;;
12846;SDS011;6492;48.128;8.320;2023-06-14T09:28:28;5.70;;;3.95;;
12846;SDS011;6492;48.128;8.320;2023-06-14T09:32:31;4.43;;;4.00;;
12846;SDS011;6492;48.128;8.320;2023-06-14T09:36:38;4.93;;;4.40;;
12846;SDS011;6492;48.128;8.320;2023-06-14T09:40:42;4.78;;;4.32;;
12846;SDS011;6492;48.128;8.320;2023-06-14T09:44:44;4.90;;;4.43;;
12846;SDS011;6492;48.128;8.320;2023-06-14T09:48:50;5.00;;;4.60;;
12846;SDS011;6492;48.128;8.320;2023-06-14T09:52:52;4.78;;;4.38;;
12846;SDS011;6492;48.128;8.320;2023-06-14T09:56:58;5.72;;;4.90;;
12846;SDS011;6492;48.128;8.320;2023-06-14T10:01:02;6.15;;;5.10;;
12846;SDS011;6492;48.128;8.320;2023-06-14T10:05:07;4.75;;;4.28;;
12846;SDS011;6492;48.128;8.320;2023-06-14T10:09:12;5.13;;;4.15;;
12846;SDS011;6492;48.128;8.320;2023-06-14T10:13:14;4.60;;;4.20;;
12846;SDS011;6492;48.128;8.320;2023-06-14T10:17:20;6.35;;;4.55;;
12846;SDS011;6492;48.128;8.320;2023-06-14T10:21:32;5.15;;;4.68;;
12846;SDS011;6492;48.128;8.320;2023-06-14T10:25:38;5.25;;;4.75;;
12846;SDS011;6492;48.128;8.320;2023-06-14T10:34:03;5.20;;;4.70;;
12846;SDS011;6492;48.128;8.320;2023-06-14T10:38:11;5.13;;;4.65;;
12846;SDS011;6492;48.128;8.320;2023-06-14T10:42:14;5.43;;;4.72;;
12846;SDS011;6492;48.128;8.320;2023-06-14T10:46:16;5.22;;;4.57;;
12846;SDS011;6492;48.128;8.320;2023-06-14T10:59:22;5.93;;;4.55;;
12846;SDS011;6492;48.128;8.320;2023-06-14T11:03:31;5.90;;;4.53;;
12846;SDS011;6492;48.128;8.320;2023-06-14T11:07:48;4.72;;;4.32;;
12846;SDS011;6492;48.128;8.320;2023-06-14T11:12:10;5.20;;;4.80;;
12846;SDS011;6492;48.128;8.320;2023-06-14T11:16:13;5.00;;;4.60;;
12846;SDS011;6492;48.128;8.320;2023-06-14T11:20:16;4.70;;;4.35;;
12846;SDS011;6492;48.128;8.320;2023-06-14T11:24:19;5.70;;;4.80;;
12846;SDS011;6492;48.128;8.320;2023-06-14T11:28:22;5.72;;;5.15;;
12846;SDS011;6492;48.128;8.320;2023-06-14T11:32:25;7.53;;;5.03;;
12846;SDS011;6492;48.128;8.320;2023-06-14T11:36:27;5.13;;;4.63;;
12846;SDS011;6492;48.128;8.320;2023-06-14T11:40:30;5.32;;;4.82;;
12846;SDS011;6492;48.128;8.320;2023-06-14T11:44:33;4.93;;;4.53;;
12846;SDS011;6492;48.128;8.320;2023-06-14T11:48:36;5.18;;;4.75;;
12846;SDS011;6492;48.128;8.320;2023-06-14T11:52:38;5.53;;;5.13;;
12846;SDS011;6492;48.128;8.320;2023-06-14T11:56:40;5.30;;;4.90;;
12846;SDS011;6492;48.128;8.320;2023-06-14T12:00:44;5.07;;;4.68;;
12846;SDS011;6492;48.128;8.320;2023-06-14T12:04:49;9.65;;;5.00;;
12846;SDS011;6492;48.128;8.320;2023-06-14T12:08:55;4.47;;;4.18;;
12846;SDS011;6492;48.128;8.320;2023-06-14T12:12:57;5.38;;;4.93;;
12846;SDS011;6492;48.128;8.320;2023-06-14T12:17:07;4.95;;;4.55;;
12846;SDS011;6492;48.128;8.320;2023-06-14T12:21:09;4.88;;;4.35;;
12846;SDS011;6492;48.128;8.320;2023-06-14T12:25:11;4.80;;;4.40;;
12846;SDS011;6492;48.128;8.320;2023-06-14T12:29:27;4.70;;;4.40;;
12846;SDS011;6492;48.128;8.320;2023-06-14T12:33:30;4.85;;;4.45;;
12846;SDS011;6492;48.128;8.320;2023-06-14T12:37:32;5.47;;;5.03;;
12846;SDS011;6492;48.128;8.320;2023-06-14T12:41:33;4.82;;;4.43;;
12846;SDS011;6492;48.128;8.320;2023-06-14T12:45:36;4.82;;;4.32;;
12846;SDS011;6492;48.128;8.320;2023-06-14T12:49:40;5.15;;;4.65;;
12846;SDS011;6492;48.128;8.320;2023-06-14T12:53:42;5.68;;;4.68;;
12846;SDS011;6492;48.128;8.320;2023-06-14T12:57:44;6.13;;;4.70;;
12846;SDS011;6492;48.128;8.320;2023-06-14T13:01:46;5.25;;;4.65;;
12846;SDS011;6492;48.128;8.320;2023-06-14T13:05:51;4.97;;;4.38;;
12846;SDS011;6492;48.128;8.320;2023-06-14T13:09:53;4.70;;;4.30;;
12846;SDS011;6492;48.128;8.320;2023-06-14T13:13:55;5.53;;;5.03;;
12846;SDS011;6492;48.128;8.320;2023-06-14T13:17:56;4.90;;;4.50;;
12846;SDS011;6492;48.128;8.320;2023-06-14T13:22:00;5.88;;;4.60;;
12846;SDS011;6492;48.128;8.320;2023-06-14T13:26:01;7.47;;;5.32;;
12846;SDS011;6492;48.128;8.320;2023-06-14T13:34:35;7.82;;;4.78;;
12846;SDS011;6492;48.128;8.320;2023-06-14T13:38:38;4.70;;;4.30;;
12846;SDS011;6492;48.128;8.320;2023-06-14T13:42:40;4.78;;;4.35;;
12846;SDS011;6492;48.128;8.320;2023-06-14T13:46:42;5.63;;;4.40;;
12846;SDS011;6492;48.128;8.320;2023-06-14T13:50:44;4.55;;;4.25;;
12846;SDS011;6492;48.128;8.320;2023-06-14T13:54:47;5.53;;;4.80;;
12846;SDS011;6492;48.128;8.320;2023-06-14T13:58:49;5.03;;;4.63;;
12846;SDS011;6492;48.128;8.320;2023-06-14T14:02:52;5.38;;;4.40;;
12846;SDS011;6492;48.128;8.320;2023-06-14T14:06:54;5.25;;;4.47;;
12846;SDS011;6492;48.128;8.320;2023-06-14T14:10:57;5.38;;;4.88;;
12846;SDS011;6492;48.128;8.320;2023-06-14T14:14:59;7.03;;;5.00;;
12846;SDS011;6492;48.128;8.320;2023-06-14T14:19:01;5.30;;;4.90;;
12846;SDS011;6492;48.128;8.320;2023-06-14T14:23:03;5.25;;;4.75;;
12846;SDS011;6492;48.128;8.320;2023-06-14T14:27:07;5.07;;;4.63;;
12846;SDS011;6492;48.128;8.320;2023-06-14T14:31:10;6.65;;;5.15;;
12846;SDS011;6492;48.128;8.320;2023-06-14T14:35:11;5.82;;;5.32;;
12846;SDS011;6492;48.128;8.320;2023-06-14T14:39:13;5.53;;;4.80;;
12846;SDS011;6492;48.128;8.320;2023-06-14T14:43:17;5.25;;;4.80;;
12846;SDS011;6492;48.128;8.320;2023-06-14T14:47:19;5.57;;;5.07;;
12846;SDS011;6492;48.128;8.320;2023-06-14T14:51:20;5.70;;;4.60;;
12846;SDS011;6492;48.128;8.320;2023-06-14T14:55:23;5.20;;;4.80;;
12846;SDS011;6492;48.128;8.320;2023-06-14T14:59:26;5.80;;;4.85;;
12846;SDS011;6492;48.128;8.320;2023-06-14T15:03:28;6.43;;;5.20;;
12846;SDS011;6492;48.128;8.320;2023-06-14T15:07:30;7.18;;;5.22;;
12846;SDS011;6492;48.128;8.320;2023-06-14T15:16:06;4.95;;;4.55;;
12846;SDS011;6492;48.128;8.320;2023-06-14T15:24:13;6.53;;;4.78;;
12846;SDS011;6492;48.128;8.320;2023-06-14T15:36:51;5.90;;;5.25;;
12846;SDS011;6492;48.128;8.320;2023-06-14T15:40:53;5.65;;;5.03;;
12846;SDS011;6492;48.128;8.320;2023-06-14T15:44:55;6.50;;;5.90;;
12846;SDS011;6492;48.128;8.320;2023-06-14T15:49:12;6.47;;;5.78;;
12846;SDS011;6492;48.128;8.320;2023-06-14T15:53:21;4.95;;;4.45;;
12846;SDS011;6492;48.128;8.320;2023-06-14T15:57:23;5.60;;;4.95;;
12846;SDS011;6492;48.128;8.320;2023-06-14T16:01:25;7.40;;;5.15;;
12846;SDS011;6492;48.128;8.320;2023-06-14T16:09:43;6.68;;;4.72;;
12846;SDS011;6492;48.128;8.320;2023-06-14T16:13:46;5.28;;;4.75;;
12846;SDS011;6492;48.128;8.320;2023-06-14T16:17:48;6.18;;;4.72;;
12846;SDS011;6492;48.128;8.320;2023-06-14T16:21:51;5.10;;;4.60;;
12846;SDS011;6492;48.128;8.320;2023-06-14T16:25:53;5.97;;;5.25;;
12846;SDS011;6492;48.128;8.320;2023-06-14T16:29:55;6.07;;;5.07;;
12846;SDS011;6492;48.128;8.320;2023-06-14T16:33:57;5.80;;;5.30;;
12846;SDS011;6492;48.128;8.320;2023-06-14T16:38:01;8.18;;;7.38;;
12846;SDS011;6492;48.128;8.320;2023-06-14T16:42:03;6.13;;;4.55;;
12846;SDS011;6492;48.128;8.320;2023-06-14T16:46:06;6.07;;;4.50;;
12846;SDS011;6492;48.128;8.320;2023-06-14T16:50:09;6.90;;;5.07;;
12846;SDS011;6492;48.128;8.320;2023-06-14T17:03:16;6.57;;;5.75;;
12846;SDS011;6492;48.128;8.320;2023-06-14T17:07:17;5.10;;;4.70;;
12846;SDS011;6492;48.128;8.320;2023-06-14T17:11:27;5.60;;;5.07;;
12846;SDS011;6492;48.128;8.320;2023-06-14T17:15:28;6.40;;;5.30;;
12846;SDS011;6492;48.128;8.320;2023-06-14T17:19:32;6.07;;;5.47;;
12846;SDS011;6492;48.128;8.320;2023-06-14T17:23:34;5.70;;;5.20;;
12846;SDS011;6492;48.128;8.320;2023-06-14T17:27:41;4.78;;;4.38;;
12846;SDS011;6492;48.128;8.320;2023-06-14T17:31:55;5.57;;;5.07;;
12846;SDS011;6492;48.128;8.320;2023-06-14T17:35:56;6.50;;;4.90;;
12846;SDS011;6492;48.128;8.320;2023-06-14T17:39:58;8.05;;;7.28;;
12846;SDS011;6492;48.128;8.320;2023-06-14T17:44:01;5.13;;;4.47;;
12846;SDS011;6492;48.128;8.320;2023-06-14T17:48:04;4.95;;;4.50;;
12846;SDS011;6492;48.128;8.320;2023-06-14T17:52:06;5.97;;;4.72;;
12846;SDS011;6492;48.128;8.320;2023-06-14T17:56:12;5.32;;;4.40;;
12846;SDS011;6492;48.128;8.320;2023-06-14T18:00:17;5.50;;;4.43;;
12846;SDS011;6492;48.128;8.320;2023-06-14T18:04:29;5.15;;;4.70;;
12846;SDS011;6492;48.128;8.320;2023-06-14T18:13:12;5.00;;;4.50;;
12846;SDS011;6492;48.128;8.320;2023-06-14T18:21:52;4.72;;;4.30;;
12846;SDS011;6492;48.128;8.320;2023-06-14T18:25:54;4.85;;;4.45;;
12846;SDS011;6492;48.128;8.320;2023-06-14T18:29:55;6.03;;;4.20;;
12846;SDS011;6492;48.128;8.320;2023-06-14T18:34:06;5.15;;;4.30;;
12846;SDS011;6492;48.128;8.320;2023-06-14T18:38:07;5.25;;;4.45;;
12846;SDS011;6492;48.128;8.320;2023-06-14T18:42:12;5.93;;;4.43;;
12846;SDS011;6492;48.128;8.320;2023-06-14T18:46:16;5.15;;;4.55;;
12846;SDS011;6492;48.128;8.320;2023-06-14T18:59:13;4.72;;;4.18;;
12846;SDS011;6492;48.128;8.320;2023-06-14T19:07:50;5.88;;;4.25;;
12846;SDS011;6492;48.128;8.320;2023-06-14T19:16:22;4.80;;;4.40;;
12846;SDS011;6492;48.128;8.320;2023-06-14T19:20:24;5.00;;;4.30;;
12846;SDS011;6492;48.128;8.320;2023-06-14T19:24:29;4.60;;;4.20;;
12846;SDS011;6492;48.128;8.320;2023-06-14T19:28:38;5.10;;;4.60;;
12846;SDS011;6492;48.128;8.320;2023-06-14T19:32:39;4.82;;;4.30;;
12846;SDS011;6492;48.128;8.320;2023-06-14T19:41:15;5.15;;;4.38;;
12846;SDS011;6492;48.128;8.320;2023-06-14T19:45:19;5.60;;;4.57;;
12846;SDS011;6492;48.128;8.320;2023-06-14T19:49:21;5.45;;;4.28;;
12846;SDS011;6492;48.128;8.320;2023-06-14T19:53:23;4.47;;;4.07;;
12846;SDS011;6492;48.128;8.320;2023-06-14T19:57:26;4.80;;;4.40;;
12846;SDS011;6492;48.128;8.320;2023-06-14T20:01:28;4.55;;;4.15;;
12846;SDS011;6492;48.128;8.320;2023-06-14T20:05:30;4.53;;;3.72;;
12846;SDS011;6492;48.128;8.320;2023-06-14T20:09:34;5.40;;;3.97;;
12846;SDS011;6492;48.128;8.320;2023-06-14T20:13:43;5.57;;;4.63;;
12846;SDS011;6492;48.128;8.320;2023-06-14T20:17:50;5.10;;;4.20;;
12846;SDS011;6492;48.128;8.320;2023-06-14T20:21:52;5.73;;;4.60;;
12846;SDS011;6492;48.128;8.320;2023-06-14T20:30:46;17.20;;;4.23;;
12846;SDS011;6492;48.128;8.320;2023-06-14T20:34:54;5.50;;;4.57;;
12846;SDS011;6492;48.128;8.320;2023-06-14T20:38:57;4.90;;;4.50;;
12846;SDS011;6492;48.128;8.320;2023-06-14T20:43:02;5.80;;;4.77;;
12846;SDS011;6492;48.128;8.320;2023-06-14T20:47:07;5.80;;;4.73;;
12846;SDS011;6492;48.128;8.320;2023-06-14T20:51:12;4.67;;;4.27;;
12846;SDS011;6492;48.128;8.320;2023-06-14T20:55:14;5.17;;;4.20;;
12846;SDS011;6492;48.128;8.320;2023-06-14T20:59:17;5.03;;;4.53;;
12846;SDS011;6492;48.128;8.320;2023-06-14T21:03:20;5.27;;;4.77;;
12846;SDS011;6492;48.128;8.320;2023-06-14T21:07:22;6.13;;;4.70;;
12846;SDS011;6492;48.128;8.320;2023-06-14T21:11:25;4.87;;;4.37;;
12846;SDS011;6492;48.128;8.320;2023-06-14T21:15:27;5.10;;;4.60;;
12846;SDS011;6492;48.128;8.320;2023-06-14T21:19:30;5.57;;;4.80;;
12846;SDS011;6492;48.128;8.320;2023-06-14T21:23:32;5.10;;;4.60;;
12846;SDS011;6492;48.128;8.320;2023-06-14T21:27:34;4.97;;;4.47;;
12846;SDS011;6492;48.128;8.320;2023-06-14T21:31:36;5.27;;;4.57;;
12846;SDS011;6492;48.128;8.320;2023-06-14T21:35:39;5.07;;;4.57;;
12846;SDS011;6492;48.128;8.320;2023-06-14T21:39:41;4.77;;;4.30;;
12846;SDS011;6492;48.128;8.320;2023-06-14T21:43:43;4.50;;;4.10;;
12846;SDS011;6492;48.128;8.320;2023-06-14T21:47:46;4.53;;;4.13;;
12846;SDS011;6492;48.128;8.320;2023-06-14T21:51:51;8.20;;;4.77;;
12846;SDS011;6492;48.128;8.320;2023-06-14T21:55:53;7.20;;;4.90;;
12846;SDS011;6492;48.128;8.320;2023-06-14T21:59:54;5.10;;;4.63;;
12846;SDS011;6492;48.128;8.320;2023-06-14T22:03:56;4.40;;;4.00;;
12846;SDS011;6492;48.128;8.320;2023-06-14T22:07:59;5.00;;;4.43;;
12846;SDS011;6492;48.128;8.320;2023-06-14T22:12:02;5.27;;;4.50;;
12846;SDS011;6492;48.128;8.320;2023-06-14T22:16:05;5.00;;;4.60;;
12846;SDS011;6492;48.128;8.320;2023-06-14T22:20:08;6.00;;;4.70;;
12846;SDS011;6492;48.128;8.320;2023-06-14T22:24:12;6.30;;;4.63;;
12846;SDS011;6492;48.128;8.320;2023-06-14T22:28:14;6.63;;;5.03;;
12846;SDS011;6492;48.128;8.320;2023-06-14T22:32:17;5.10;;;4.60;;
12846;SDS011;6492;48.128;8.320;2023-06-14T22:36:20;5.07;;;4.57;;
12846;SDS011;6492;48.128;8.320;2023-06-14T22:40:26;5.13;;;4.33;;
12846;SDS011;6492;48.128;8.320;2023-06-14T22:44:28;5.77;;;4.90;;
12846;SDS011;6492;48.128;8.320;2023-06-14T22:48:33;5.20;;;4.27;;
12846;SDS011;6492;48.128;8.320;2023-06-14T22:52:44;4.87;;;4.43;;
12846;SDS011;6492;48.128;8.320;2023-06-14T22:56:47;5.33;;;4.83;;
12846;SDS011;6492;48.128;8.320;2023-06-14T23:00:50;4.63;;;4.23;;
12846;SDS011;6492;48.128;8.320;2023-06-14T23:04:52;4.80;;;4.40;;
12846;SDS011;6492;48.128;8.320;2023-06-14T23:08:54;5.10;;;4.60;;
12846;SDS011;6492;48.128;8.320;2023-06-14T23:13:01;5.47;;;4.60;;
12846;SDS011;6492;48.128;8.320;2023-06-14T23:17:04;4.87;;;4.47;;
12846;SDS011;6492;48.128;8.320;2023-06-14T23:21:06;5.67;;;4.27;;
12846;SDS011;6492;48.128;8.320;2023-06-14T23:25:11;4.70;;;4.30;;
12846;SDS011;6492;48.128;8.320;2023-06-14T23:29:14;5.33;;;4.83;;
12846;SDS011;6492;48.128;8.320;2023-06-14T23:33:19;4.70;;;4.30;;
12846;SDS011;6492;48.128;8.320;2023-06-14T23:37:21;4.60;;;4.03;;
12846;SDS011;6492;48.128;8.320;2023-06-14T23:41:24;6.63;;;4.97;;
12846;SDS011;6492;48.128;8.320;2023-06-14T23:45:31;5.83;;;4.90;;
12846;SDS011;6492;48.128;8.320;2023-06-14T23:49:36;5.83;;;4.97;;
12846;SDS011;6492;48.128;8.320;2023-06-14T23:53:38;5.63;;;5.10;;
12846;SDS011;6492;48.128;8.320;2023-06-14T23:57:40;5.83;;;5.10;;
